Time;durP1;ratioP1;P1;durP2;ratioP2;P2;SDS_P1;SDS_P2;PMS_P1;PMS_P2;Temp;Humidity;BMP_temperature;BMP_pressure;BME280_temperature;BME280_humidity;BME280_pressure;Samples;Min_cycle;Max_cycle;Signal;HPM_P1;HPM_P2
2022/03/01 00:01:40;;;;;;;10.25;6.85;;;5.90;60.70;;;;;;5095326;28;20099;-44
2022/03/01 00:04:06;;;;;;;10.45;6.50;;;5.90;60.70;;;;;;5095389;28;20461;-47
2022/03/01 00:06:32;;;;;;;11.90;7.03;;;5.90;60.70;;;;;;5095300;28;20024;-48
2022/03/01 00:08:57;;;;;;;9.50;6.25;;;5.90;60.80;;;;;;5095463;28;20425;-45
2022/03/01 00:11:23;;;;;;;10.98;6.45;;;5.80;60.80;;;;;;5095296;28;20035;-45
2022/03/01 00:13:49;;;;;;;10.85;6.68;;;5.70;60.70;;;;;;5095159;28;20027;-48
2022/03/01 00:16:16;;;;;;;10.27;6.70;;;5.80;60.80;;;;;;5095070;28;20032;-44
2022/03/01 00:18:41;;;;;;;12.40;7.03;;;5.80;60.80;;;;;;5095216;28;20461;-45
2022/03/01 00:21:07;;;;;;;8.85;6.00;;;5.70;60.80;;;;;;5095216;28;20056;-47
2022/03/01 00:23:32;;;;;;;9.65;7.07;;;5.70;60.80;;;;;;5095090;28;20051;-44
2022/03/01 00:25:58;;;;;;;9.70;6.40;;;5.70;60.80;;;;;;5094467;28;20028;-45
2022/03/01 00:28:24;;;;;;;10.18;6.20;;;5.70;60.80;;;;;;5094755;28;20054;-45
2022/03/01 00:30:49;;;;;;;9.73;6.53;;;5.70;60.80;;;;;;5076621;28;20030;-45
2022/03/01 00:33:15;;;;;;;9.45;5.68;;;5.60;60.80;;;;;;5094718;28;20020;-44
2022/03/01 00:35:41;;;;;;;9.65;6.43;;;5.60;60.90;;;;;;5094561;28;20026;-43
2022/03/01 00:38:07;;;;;;;9.82;6.60;;;5.60;60.90;;;;;;5094628;28;20099;-44
2022/03/01 00:40:32;;;;;;;9.35;6.50;;;5.60;60.90;;;;;;5076371;28;20030;-42
2022/03/01 00:42:58;;;;;;;9.00;6.00;;;5.70;60.90;;;;;;5094563;28;20462;-44
2022/03/01 00:45:23;;;;;;;8.65;5.72;;;5.70;60.80;;;;;;5059718;28;20085;-43
2022/03/01 00:47:49;;;;;;;9.40;6.53;;;5.60;60.80;;;;;;5094421;28;20096;-44
2022/03/01 00:50:15;;;;;;;11.38;6.07;;;5.70;60.90;;;;;;5094501;28;20111;-43
2022/03/01 00:52:41;;;;;;;11.35;6.25;;;5.60;60.80;;;;;;5094360;28;20027;-42
2022/03/01 00:55:07;;;;;;;8.98;5.80;;;5.70;61.00;;;;;;5094177;28;20044;-42
2022/03/01 00:57:33;;;;;;;9.55;6.40;;;5.60;61.00;;;;;;5094480;28;20027;-44
2022/03/01 00:59:58;;;;;;;10.23;6.43;;;5.60;61.00;;;;;;5094221;28;20016;-45
2022/03/01 01:02:24;;;;;;;11.70;6.50;;;5.60;61.10;;;;;;5094237;28;20028;-43
2022/03/01 01:04:50;;;;;;;10.75;6.60;;;5.60;61.20;;;;;;5094197;28;20027;-47
2022/03/01 01:07:15;;;;;;;11.00;6.50;;;5.50;61.20;;;;;;5094104;28;20032;-44
2022/03/01 01:09:41;;;;;;;9.05;6.15;;;5.50;61.30;;;;;;5094039;28;20020;-44
2022/03/01 01:12:07;;;;;;;10.70;7.20;;;5.50;61.30;;;;;;5093914;28;20103;-45
2022/03/01 01:14:32;;;;;;;11.55;7.00;;;5.50;61.40;;;;;;5093962;28;20020;-45
2022/03/01 01:16:58;;;;;;;12.95;6.45;;;5.50;61.50;;;;;;5093842;28;20039;-45
2022/03/01 01:19:24;;;;;;;7.95;5.78;;;5.50;61.60;;;;;;5093989;28;20026;-44
2022/03/01 01:24:33;;;;;;;9.48;5.90;;;5.40;61.60;;;;;;5094044;28;20506;-45
2022/03/01 01:26:59;;;;;;;11.13;6.63;;;5.40;61.60;;;;;;5093576;28;20024;-43
2022/03/01 01:29:25;;;;;;;9.68;6.13;;;5.40;61.80;;;;;;5075830;28;20020;-45
2022/03/01 01:31:50;;;;;;;9.75;6.57;;;5.40;61.80;;;;;;5093464;28;20440;-46
2022/03/01 01:34:16;;;;;;;11.00;6.28;;;5.40;61.80;;;;;;5093873;28;20093;-44
2022/03/01 01:36:41;;;;;;;11.63;6.88;;;5.30;61.80;;;;;;5093394;28;20020;-44
2022/03/01 01:39:07;;;;;;;11.23;7.05;;;5.30;61.80;;;;;;5074648;28;20031;-45
2022/03/01 01:41:33;;;;;;;11.98;7.30;;;5.40;61.80;;;;;;5093449;28;20138;-47
2022/03/01 01:44:01;;;;;;;10.88;6.72;;;5.40;61.80;;;;;;5093635;28;20016;-44
2022/03/01 01:46:26;;;;;;;11.48;7.55;;;5.40;61.80;;;;;;5093606;28;20019;-45
2022/03/01 01:48:52;;;;;;;11.60;7.10;;;5.40;61.70;;;;;;5093472;28;20487;-44
2022/03/01 01:51:17;;;;;;;10.73;6.88;;;5.40;61.70;;;;;;5093426;28;20031;-44
2022/03/01 01:53:43;;;;;;;11.52;6.40;;;5.40;61.70;;;;;;5075055;28;20027;-43
2022/03/01 01:56:08;;;;;;;12.77;6.82;;;5.40;61.70;;;;;;5093038;28;20123;-45
2022/03/01 01:58:35;;;;;;;12.80;7.13;;;5.40;61.90;;;;;;5093515;28;20145;-43
2022/03/01 02:01:00;;;;;;;11.65;6.57;;;5.40;61.70;;;;;;5093511;28;20518;-43
2022/03/01 02:03:26;;;;;;;11.88;7.20;;;5.40;61.70;;;;;;5093125;28;20099;-43
2022/03/01 02:05:52;;;;;;;10.50;7.28;;;5.40;61.70;;;;;;5093054;28;20032;-42
2022/03/01 02:08:17;;;;;;;13.48;6.78;;;5.40;61.70;;;;;;5093038;28;20077;-41
2022/03/01 02:10:43;;;;;;;10.80;6.80;;;5.40;61.80;;;;;;5075068;28;20017;-44
2022/03/01 02:13:08;;;;;;;10.48;6.93;;;5.40;61.80;;;;;;5074944;28;20099;-43
2022/03/01 02:15:35;;;;;;;10.52;6.90;;;5.40;61.80;;;;;;5093040;28;20051;-44
2022/03/01 02:18:01;;;;;;;12.68;6.88;;;5.50;61.80;;;;;;5093106;28;20027;-44
2022/03/01 02:20:29;;;;;;;11.27;7.20;;;5.40;61.80;;;;;;5092945;28;20012;-45
2022/03/01 02:22:56;;;;;;;12.70;6.53;;;5.40;61.80;;;;;;5074814;28;20020;-44
2022/03/01 02:25:22;;;;;;;11.65;6.90;;;5.50;61.80;;;;;;5092875;28;20065;-45
2022/03/01 02:27:48;;;;;;;11.07;6.80;;;5.50;61.80;;;;;;5074750;28;20553;-44
2022/03/01 02:30:13;;;;;;;11.32;7.18;;;5.40;61.70;;;;;;5093165;28;20052;-43
2022/03/01 02:32:40;;;;;;;11.45;7.15;;;5.40;61.80;;;;;;5092654;28;20028;-43
2022/03/01 02:35:08;;;;;;;12.70;6.88;;;5.50;61.90;;;;;;5074623;28;20028;-43
2022/03/01 02:37:34;;;;;;;11.98;7.72;;;5.50;61.90;;;;;;5092741;28;20020;-45
2022/03/01 02:40:00;;;;;;;12.05;7.07;;;5.50;61.90;;;;;;5092771;28;20020;-44
2022/03/01 02:42:27;;;;;;;11.13;7.13;;;5.50;62.00;;;;;;5092766;28;20024;-43
2022/03/01 02:44:53;;;;;;;11.38;7.00;;;5.40;62.00;;;;;;5092917;28;20020;-43
2022/03/01 02:47:19;;;;;;;12.15;7.10;;;5.40;62.00;;;;;;5092680;28;20055;-44
2022/03/01 02:49:45;;;;;;;10.63;7.05;;;5.40;62.00;;;;;;5094320;28;20047;-44
2022/03/01 02:52:11;;;;;;;10.93;7.15;;;5.40;62.10;;;;;;5096623;28;20031;-44
2022/03/01 02:54:36;;;;;;;10.70;6.85;;;5.40;62.20;;;;;;5096554;28;20048;-41
2022/03/01 02:57:03;;;;;;;14.02;7.60;;;5.40;62.20;;;;;;5096344;28;20027;-43
2022/03/01 02:59:29;;;;;;;11.63;6.97;;;5.30;62.20;;;;;;5096447;28;20103;-44
2022/03/01 03:01:58;;;;;;;11.68;6.57;;;5.40;62.30;;;;;;5096437;28;20542;-44
2022/03/01 03:04:24;;;;;;;10.00;6.85;;;5.30;62.10;;;;;;5096461;28;20020;-43
2022/03/01 03:06:50;;;;;;;9.73;6.63;;;5.30;62.80;;;;;;5096550;28;20028;-44
2022/03/01 03:09:16;;;;;;;9.95;6.28;;;5.30;62.30;;;;;;5096335;28;20050;-43
2022/03/01 03:11:42;;;;;;;11.13;6.82;;;5.30;62.40;;;;;;5096520;28;20610;-45
2022/03/01 03:14:08;;;;;;;12.13;7.47;;;5.30;62.50;;;;;;5096220;28;20039;-45
2022/03/01 03:16:33;;;;;;;11.05;7.13;;;5.30;62.60;;;;;;5096127;28;20392;-45
2022/03/01 03:18:59;;;;;;;12.30;6.88;;;5.30;62.60;;;;;;5096100;28;20421;-40
2022/03/01 03:21:25;;;;;;;10.50;6.90;;;5.30;62.60;;;;;;5096096;28;20027;-43
2022/03/01 03:23:50;;;;;;;11.35;6.85;;;5.30;62.60;;;;;;5096018;28;20028;-44
2022/03/01 03:26:16;;;;;;;11.88;7.35;;;5.30;62.50;;;;;;5096028;28;20091;-41
2022/03/01 03:28:42;;;;;;;9.38;6.53;;;5.30;62.50;;;;;;5096209;28;20399;-43
2022/03/01 03:31:07;;;;;;;10.77;6.90;;;5.40;62.60;;;;;;5095885;28;20039;-42
2022/03/01 03:33:33;;;;;;;11.02;6.80;;;5.30;62.50;;;;;;5095855;28;20431;-43
2022/03/01 03:35:59;;;;;;;11.90;7.75;;;5.40;62.50;;;;;;5095667;28;20046;-43
2022/03/01 03:38:25;;;;;;;10.80;7.05;;;5.40;62.60;;;;;;5095992;28;20074;-43
2022/03/01 03:40:52;;;;;;;10.40;6.95;;;5.40;62.60;;;;;;5095662;28;20031;-41
2022/03/01 03:43:18;;;;;;;10.57;7.30;;;5.40;62.50;;;;;;5077567;28;20488;-45
2022/03/01 03:45:44;;;;;;;12.90;7.55;;;5.40;62.50;;;;;;5095588;28;20028;-42
2022/03/01 03:48:09;;;;;;;11.32;6.82;;;5.50;62.50;;;;;;5077347;28;20020;-43
2022/03/01 03:50:35;;;;;;;11.60;7.40;;;5.40;62.60;;;;;;5095645;28;20031;-43
2022/03/01 03:53:03;;;;;;;12.02;7.28;;;5.40;62.60;;;;;;5095608;28;20111;-42
2022/03/01 03:55:29;;;;;;;10.82;6.97;;;5.40;62.80;;;;;;5095337;28;20040;-43
2022/03/01 03:57:55;;;;;;;10.90;7.47;;;5.40;62.90;;;;;;5095195;28;20039;-41
2022/03/01 04:00:21;;;;;;;9.52;7.10;;;5.30;62.90;;;;;;5095152;28;20032;-45
2022/03/01 04:02:48;;;;;;;12.90;7.25;;;5.40;63.10;;;;;;5094726;28;20112;-43
2022/03/01 04:05:15;;;;;;;12.93;8.30;;;5.40;63.10;;;;;;5095207;28;20032;-43
2022/03/01 04:07:41;;;;;;;12.10;6.97;;;5.30;63.10;;;;;;5095156;28;20437;-42
2022/03/01 04:10:08;;;;;;;10.25;7.10;;;5.30;63.20;;;;;;5095207;28;20501;-43
2022/03/01 04:12:34;;;;;;;10.57;7.10;;;5.40;63.30;;;;;;5095071;28;20438;-43
2022/03/01 04:15:00;;;;;;;13.43;7.82;;;5.40;63.30;;;;;;5095023;28;20032;-43
2022/03/01 04:17:26;;;;;;;13.43;7.45;;;5.40;63.30;;;;;;5094902;28;20133;-43
2022/03/01 04:19:52;;;;;;;11.13;6.60;;;5.40;63.20;;;;;;5094932;28;20040;-43
2022/03/01 04:22:17;;;;;;;10.10;6.60;;;5.40;63.20;;;;;;5094937;28;20024;-43
2022/03/01 04:24:44;;;;;;;11.23;6.78;;;5.40;63.20;;;;;;5094799;28;20035;-43
2022/03/01 04:27:09;;;;;;;10.70;7.30;;;5.40;63.30;;;;;;5094790;28;20032;-43
2022/03/01 04:29:35;;;;;;;11.18;7.15;;;5.40;63.30;;;;;;5094771;28;20043;-42
2022/03/01 04:32:01;;;;;;;11.45;7.25;;;5.30;63.40;;;;;;5076459;28;20020;-44
2022/03/01 04:34:27;;;;;;;10.85;7.43;;;5.40;63.50;;;;;;5094881;28;20106;-43
2022/03/01 04:36:53;;;;;;;11.88;7.10;;;5.30;63.50;;;;;;5094529;28;20504;-43
2022/03/01 04:39:19;;;;;;;10.85;7.07;;;5.30;63.40;;;;;;5094548;28;20060;-43
2022/03/01 04:41:45;;;;;;;10.15;7.10;;;5.30;63.50;;;;;;5094743;28;20030;-42
2022/03/01 04:44:10;;;;;;;12.30;7.38;;;5.30;63.50;;;;;;5094509;28;20484;-44
2022/03/01 04:46:36;;;;;;;10.95;7.10;;;5.30;63.50;;;;;;5094438;28;20035;-41
2022/03/01 04:49:03;;;;;;;11.40;7.68;;;5.30;63.60;;;;;;5094305;28;20384;-45
2022/03/01 04:51:29;;;;;;;13.02;7.07;;;5.30;63.70;;;;;;5094483;28;20544;-44
2022/03/01 04:53:55;;;;;;;12.38;7.18;;;5.20;63.70;;;;;;5094076;28;20483;-44
2022/03/01 04:56:21;;;;;;;14.43;7.53;;;5.20;63.70;;;;;;5094120;28;20123;-44
2022/03/01 04:58:47;;;;;;;11.10;7.63;;;5.20;63.70;;;;;;5094239;28;20503;-44
2022/03/01 05:01:13;;;;;;;12.10;7.30;;;5.20;63.80;;;;;;5094416;28;20016;-43
2022/03/01 05:03:38;;;;;;;11.10;6.88;;;5.20;63.80;;;;;;5094172;28;20024;-42
2022/03/01 05:06:04;;;;;;;10.43;7.22;;;5.20;63.80;;;;;;5094268;28;20037;-45
2022/03/01 05:08:30;;;;;;;11.45;7.85;;;5.20;63.80;;;;;;5075797;28;20115;-45
2022/03/01 05:10:57;;;;;;;11.95;7.20;;;5.20;63.80;;;;;;5093903;28;20020;-44
2022/03/01 05:13:22;;;;;;;11.13;7.07;;;5.30;63.90;;;;;;5092834;28;20055;-44
2022/03/01 05:15:48;;;;;;;13.63;6.97;;;5.30;63.90;;;;;;5075735;28;20020;-44
2022/03/01 05:18:14;;;;;;;11.45;7.65;;;5.30;63.80;;;;;;5093744;28;20020;-44
2022/03/01 05:20:39;;;;;;;9.50;6.75;;;5.30;63.80;;;;;;5075447;28;20031;-44
2022/03/01 05:23:05;;;;;;;11.30;6.97;;;5.30;63.70;;;;;;5093700;28;20091;-44
2022/03/01 05:25:30;;;;;;;11.45;7.57;;;5.20;63.50;;;;;;5093615;28;20024;-44
2022/03/01 05:27:56;;;;;;;11.65;7.40;;;5.20;63.50;;;;;;5093556;28;20024;-43
2022/03/01 05:30:23;;;;;;;11.27;7.13;;;5.20;63.50;;;;;;5093567;28;20103;-44
2022/03/01 05:32:52;;;;;;;11.65;7.53;;;5.20;63.40;;;;;;5093633;28;20040;-44
2022/03/01 05:35:21;;;;;;;12.57;7.63;;;5.30;63.50;;;;;;5075181;28;20062;-46
2022/03/01 05:37:52;;;;;;;11.50;7.72;;;5.20;63.40;;;;;;5093361;28;20468;-42
2022/03/01 05:40:18;;;;;;;11.27;7.68;;;5.30;63.50;;;;;;5093475;28;20039;-43
2022/03/01 05:42:44;;;;;;;11.65;7.97;;;5.20;63.50;;;;;;5093337;28;20024;-43
2022/03/01 05:45:11;;;;;;;11.00;7.25;;;5.20;63.40;;;;;;5093271;28;20077;-43
2022/03/01 05:47:37;;;;;;;13.60;7.72;;;5.20;63.50;;;;;;5093245;28;20032;-42
2022/03/01 05:50:03;;;;;;;12.68;7.65;;;5.20;63.40;;;;;;5093469;28;20024;-44
2022/03/01 05:52:29;;;;;;;13.20;7.90;;;5.20;63.50;;;;;;5093218;28;20070;-44
2022/03/01 05:54:54;;;;;;;13.65;7.80;;;5.10;63.50;;;;;;5093034;28;20063;-44
2022/03/01 05:57:24;;;;;;;12.07;8.10;;;5.20;63.50;;;;;;5093441;28;20103;-43
2022/03/01 05:59:49;;;;;;;11.77;7.72;;;5.10;63.50;;;;;;5093081;28;20031;-42
2022/03/01 06:02:15;;;;;;;11.95;8.13;;;5.10;63.50;;;;;;5093220;28;20095;-44
2022/03/01 06:04:40;;;;;;;12.85;8.43;;;5.10;63.60;;;;;;5093206;28;20031;-44
2022/03/01 06:07:06;;;;;;;12.88;8.18;;;5.10;63.70;;;;;;5075012;28;20027;-42
2022/03/01 06:09:31;;;;;;;12.15;7.65;;;5.00;63.70;;;;;;5093234;28;20024;-43
2022/03/01 06:11:57;;;;;;;13.40;8.57;;;5.00;63.80;;;;;;5092894;28;20364;-43
2022/03/01 06:14:22;;;;;;;12.00;7.43;;;5.00;63.80;;;;;;5093367;28;20375;-45
2022/03/01 06:16:48;;;;;;;14.40;8.48;;;5.00;63.80;;;;;;5092984;28;20020;-44
2022/03/01 06:19:14;;;;;;;11.65;7.78;;;5.00;63.80;;;;;;5093052;28;20103;-45
2022/03/01 06:21:39;;;;;;;12.40;7.75;;;5.10;63.90;;;;;;5092918;28;20028;-42
2022/03/01 06:24:05;;;;;;;12.32;7.90;;;5.10;63.90;;;;;;5093662;28;20016;-43
2022/03/01 06:26:32;;;;;;;13.13;8.18;;;5.10;63.90;;;;;;5097099;28;20077;-43
2022/03/01 06:28:58;;;;;;;13.40;8.35;;;5.10;63.90;;;;;;5097127;28;20055;-44
2022/03/01 06:31:23;;;;;;;12.10;7.95;;;5.10;63.90;;;;;;5097138;28;20079;-44
2022/03/01 06:33:49;;;;;;;14.10;8.70;;;5.10;64.00;;;;;;5096871;28;20028;-42
2022/03/01 06:36:15;;;;;;;13.80;8.43;;;5.10;64.10;;;;;;5096943;28;20027;-43
2022/03/01 06:38:40;;;;;;;13.65;8.98;;;5.10;64.20;;;;;;5096875;28;20027;-43
2022/03/01 06:41:06;;;;;;;14.50;8.68;;;5.10;64.20;;;;;;5096928;28;20024;-43
2022/03/01 06:43:32;;;;;;;12.98;7.88;;;5.10;64.30;;;;;;5096854;28;20020;-49
2022/03/01 06:45:57;;;;;;;13.20;8.23;;;5.10;64.30;;;;;;5096783;28;20016;-44
2022/03/01 06:48:23;;;;;;;12.45;8.38;;;5.10;64.40;;;;;;5096709;28;20016;-45
2022/03/01 06:50:48;;;;;;;13.60;8.80;;;5.10;64.40;;;;;;5096631;28;20028;-43
2022/03/01 06:53:14;;;;;;;12.75;8.05;;;5.10;64.40;;;;;;5096650;28;20095;-45
2022/03/01 06:55:41;;;;;;;14.13;8.40;;;5.10;64.40;;;;;;5096468;28;20102;-44
2022/03/01 06:58:06;;;;;;;15.13;8.70;;;5.10;64.50;;;;;;5096738;28;20082;-44
2022/03/01 07:00:32;;;;;;;12.60;8.20;;;5.10;64.50;;;;;;5096559;28;20422;-43
2022/03/01 07:02:58;;;;;;;14.68;8.85;;;5.10;64.50;;;;;;5096453;28;20020;-44
2022/03/01 07:05:23;;;;;;;15.10;9.30;;;5.10;64.60;;;;;;5096449;28;20356;-45
2022/03/01 07:07:49;;;;;;;14.75;9.35;;;5.10;64.60;;;;;;5096279;28;20020;-44
2022/03/01 07:10:15;;;;;;;14.85;9.00;;;5.20;64.70;;;;;;5096365;28;20036;-44
2022/03/01 07:12:42;;;;;;;16.08;9.02;;;5.20;64.70;;;;;;5096135;28;20107;-45
2022/03/01 07:15:08;;;;;;;15.70;8.60;;;5.20;64.70;;;;;;5096228;28;20399;-45
2022/03/01 07:17:34;;;;;;;13.38;8.68;;;5.20;64.70;;;;;;5095907;28;20028;-43
2022/03/01 07:20:00;;;;;;;12.27;8.52;;;5.20;64.70;;;;;;5096255;28;20103;-44
2022/03/01 07:22:26;;;;;;;15.45;8.82;;;5.30;64.80;;;;;;5077928;28;20020;-42
2022/03/01 07:24:51;;;;;;;14.75;9.35;;;5.30;64.70;;;;;;5096314;28;20487;-43
2022/03/01 07:27:17;;;;;;;13.75;8.98;;;5.30;64.70;;;;;;5096044;28;20032;-41
2022/03/01 07:29:43;;;;;;;14.85;8.75;;;5.40;64.70;;;;;;5095973;28;20020;-43
2022/03/01 07:32:09;;;;;;;15.20;9.45;;;5.40;64.60;;;;;;5095913;28;20051;-44
2022/03/01 07:34:36;;;;;;;14.30;8.57;;;5.50;64.60;;;;;;5095921;28;20437;-42
2022/03/01 07:37:02;;;;;;;11.73;8.23;;;5.50;64.60;;;;;;5094917;28;20452;-44
2022/03/01 07:39:28;;;;;;;12.27;8.05;;;5.50;64.50;;;;;;5077839;28;20081;-44
2022/03/01 07:41:54;;;;;;;14.23;8.15;;;5.60;64.60;;;;;;5077632;28;20020;-44
2022/03/01 07:44:19;;;;;;;11.63;7.80;;;5.60;64.40;;;;;;5096014;28;20064;-45
2022/03/01 07:46:46;;;;;;;11.88;7.95;;;5.70;64.40;;;;;;5095721;28;20333;-43
2022/03/01 07:49:11;;;;;;;11.40;7.45;;;5.70;64.20;;;;;;5095651;28;20099;-44
2022/03/01 07:51:37;;;;;;;12.55;7.80;;;5.80;64.30;;;;;;5095617;28;20115;-42
2022/03/01 07:54:04;;;;;;;11.73;7.43;;;5.80;64.10;;;;;;5095333;28;20024;-47
2022/03/01 07:56:30;;;;;;;14.30;8.52;;;5.90;64.00;;;;;;5095448;28;20032;-45
2022/03/01 07:58:56;;;;;;;13.70;7.90;;;6.00;64.00;;;;;;5095436;28;20017;-45
2022/03/01 08:01:22;;;;;;;13.25;8.38;;;6.00;64.00;;;;;;5077057;28;20024;-44
2022/03/01 08:03:48;;;;;;;13.05;8.10;;;6.00;63.90;;;;;;5095676;28;20375;-46
2022/03/01 08:06:14;;;;;;;11.07;7.75;;;6.10;64.00;;;;;;5095461;28;20032;-45
2022/03/01 08:08:40;;;;;;;13.40;8.65;;;6.10;64.10;;;;;;5095221;28;20074;-44
2022/03/01 08:11:06;;;;;;;11.10;7.85;;;6.00;63.90;;;;;;5095269;28;20024;-45
2022/03/01 08:13:33;;;;;;;13.35;8.43;;;6.10;64.00;;;;;;5095315;28;20063;-43
2022/03/01 08:15:58;;;;;;;13.75;8.15;;;6.10;64.00;;;;;;5095343;28;20488;-45
2022/03/01 08:18:24;;;;;;;14.80;9.02;;;6.10;63.90;;;;;;5095206;28;20048;-45
2022/03/01 08:20:50;;;;;;;11.13;7.68;;;6.10;63.90;;;;;;5095136;28;20033;-42
2022/03/01 08:23:15;;;;;;;13.85;8.52;;;6.10;63.70;;;;;;5076834;28;20068;-44
2022/03/01 08:25:41;;;;;;;11.88;7.85;;;6.20;63.70;;;;;;5076786;28;20051;-44
2022/03/01 08:28:07;;;;;;;15.00;8.20;;;6.20;63.60;;;;;;5094883;28;20051;-44
2022/03/01 08:30:35;;;;;;;12.48;8.13;;;6.20;63.50;;;;;;5094881;28;20047;-43
2022/03/01 08:33:02;;;;;;;13.48;8.38;;;6.20;63.50;;;;;;5094738;28;20016;-44
2022/03/01 08:35:28;;;;;;;13.18;8.27;;;6.30;63.50;;;;;;5094883;28;20573;-44
2022/03/01 08:37:54;;;;;;;12.40;8.05;;;6.30;63.40;;;;;;5094939;28;20030;-46
2022/03/01 08:40:22;;;;;;;12.85;8.13;;;6.40;63.30;;;;;;5094970;28;20464;-43
2022/03/01 08:42:48;;;;;;;12.75;8.35;;;6.50;63.20;;;;;;5094900;28;20020;-43
2022/03/01 08:45:14;;;;;;;14.48;8.40;;;6.60;63.00;;;;;;5094640;28;20081;-43
2022/03/01 08:47:41;;;;;;;13.00;8.75;;;6.60;62.90;;;;;;5094347;28;20042;-43
2022/03/01 08:50:08;;;;;;;13.20;8.63;;;6.80;62.90;;;;;;5094817;28;20016;-44
2022/03/01 08:52:34;;;;;;;13.13;8.10;;;6.80;62.70;;;;;;5094732;28;20103;-45
2022/03/01 08:54:59;;;;;;;13.75;8.35;;;6.90;62.60;;;;;;5094172;28;20458;-45
2022/03/01 08:57:25;;;;;;;13.57;8.48;;;6.90;62.40;;;;;;5094255;28;20081;-44
2022/03/01 08:59:50;;;;;;;13.70;8.13;;;7.00;62.40;;;;;;5094258;28;20099;-46
2022/03/01 09:02:17;;;;;;;12.32;7.82;;;7.00;62.30;;;;;;5094229;28;20050;-45
2022/03/01 09:04:44;;;;;;;10.40;7.47;;;7.10;62.20;;;;;;5094393;28;20043;-44
2022/03/01 09:07:09;;;;;;;12.15;8.20;;;7.20;62.10;;;;;;5075987;28;20073;-45
2022/03/01 09:09:35;;;;;;;12.45;8.10;;;7.30;62.00;;;;;;5094125;28;20028;-43
2022/03/01 09:12:00;;;;;;;12.25;7.95;;;7.30;61.90;;;;;;5093971;28;20039;-45
2022/03/01 09:14:26;;;;;;;12.05;8.10;;;7.40;62.40;;;;;;5094288;28;20024;-45
2022/03/01 09:16:52;;;;;;;12.93;8.13;;;7.40;61.60;;;;;;5094077;28;20495;-44
2022/03/01 09:19:18;;;;;;;12.70;7.72;;;7.50;61.50;;;;;;5093906;28;20035;-44
2022/03/01 09:21:43;;;;;;;11.50;7.25;;;7.60;61.40;;;;;;5093909;28;20365;-44
2022/03/01 09:24:09;;;;;;;10.63;6.88;;;7.60;61.10;;;;;;5094100;28;20023;-45
2022/03/01 09:26:35;;;;;;;10.60;7.00;;;7.70;61.10;;;;;;5093803;28;20492;-44
2022/03/01 09:29:00;;;;;;;10.20;7.00;;;7.80;61.00;;;;;;5093749;28;20114;-45
2022/03/01 09:31:26;;;;;;;10.98;7.22;;;7.80;60.80;;;;;;5093627;28;20077;-44
2022/03/01 09:33:52;;;;;;;9.70;6.60;;;7.90;60.60;;;;;;5075241;28;20024;-44
2022/03/01 09:36:18;;;;;;;11.90;6.93;;;7.90;60.50;;;;;;5093383;28;20421;-44
2022/03/01 09:38:44;;;;;;;9.82;6.78;;;7.90;60.40;;;;;;5093456;28;20106;-44
2022/03/01 09:41:13;;;;;;;10.65;7.10;;;8.00;60.40;;;;;;5093439;28;20016;-43
2022/03/01 09:43:40;;;;;;;11.23;7.22;;;8.00;60.10;;;;;;5093334;28;20511;-43
2022/03/01 09:46:08;;;;;;;9.25;6.82;;;8.00;60.00;;;;;;5093209;28;20052;-44
2022/03/01 09:48:34;;;;;;;10.23;7.07;;;8.00;60.00;;;;;;5093250;28;20107;-44
2022/03/01 09:51:01;;;;;;;11.48;6.72;;;8.10;60.00;;;;;;5093204;28;20027;-43
2022/03/01 09:53:27;;;;;;;11.10;7.13;;;8.10;60.00;;;;;;5093496;28;20028;-43
2022/03/01 09:55:54;;;;;;;11.32;7.03;;;8.10;59.80;;;;;;5093006;28;20078;-44
2022/03/01 09:58:20;;;;;;;9.60;6.50;;;8.20;59.80;;;;;;5093172;28;20028;-43
2022/03/01 10:00:47;;;;;;;9.48;7.05;;;8.20;59.70;;;;;;5092745;28;20023;-43
2022/03/01 10:03:17;;;;;;;10.23;6.63;;;8.30;59.70;;;;;;5093111;28;20027;-43
2022/03/01 10:05:43;;;;;;;11.35;6.57;;;8.20;59.60;;;;;;5093271;28;20099;-42
2022/03/01 10:08:11;;;;;;;11.05;6.90;;;8.30;60.00;;;;;;5093315;28;20097;-44
2022/03/01 10:10:47;;;;;;;10.88;6.97;;;8.30;59.90;;;;;;5093000;28;20103;-45
2022/03/01 10:13:15;;;;;;;11.30;7.63;;;8.30;59.60;;;;;;5093255;28;20016;-43
2022/03/01 10:15:41;;;;;;;11.88;6.88;;;8.40;59.40;;;;;;5093090;28;20472;-46
2022/03/01 10:18:12;;;;;;;10.73;6.82;;;8.40;59.40;;;;;;5093029;28;20102;-47
2022/03/01 10:20:40;;;;;;;9.82;6.40;;;8.50;59.50;;;;;;5074923;28;20035;-43
2022/03/01 10:23:06;;;;;;;9.45;6.53;;;8.60;59.50;;;;;;5093283;28;20103;-45
2022/03/01 10:25:33;;;;;;;10.68;6.75;;;8.70;59.50;;;;;;5093237;28;20428;-44
2022/03/01 10:27:58;;;;;;;9.15;6.55;;;8.80;59.40;;;;;;5092898;28;20052;-47
2022/03/01 10:30:33;;;;;;;10.23;6.55;;;9.00;59.10;;;;;;5092969;28;20035;-44
2022/03/01 10:33:06;;;;;;;9.90;5.95;;;9.10;59.10;;;;;;5092970;28;20020;-45
2022/03/01 10:35:32;;;;;;;8.70;5.85;;;9.20;58.80;;;;;;5092827;28;20028;-46
2022/03/01 10:38:00;;;;;;;9.95;6.88;;;9.30;58.60;;;;;;5092704;28;20089;-45
2022/03/01 10:40:27;;;;;;;10.10;6.95;;;9.40;58.50;;;;;;5092861;28;20601;-46
2022/03/01 10:43:04;;;;;;;11.45;7.40;;;9.40;58.70;;;;;;5092751;28;20016;-44
2022/03/01 10:45:41;;;;;;;8.85;6.30;;;9.40;58.40;;;;;;5092781;28;20028;-44
2022/03/01 10:48:09;;;;;;;11.23;7.07;;;9.40;58.20;;;;;;5092721;28;20103;-46
2022/03/01 10:50:36;;;;;;;11.60;6.68;;;9.50;58.10;;;;;;5092709;28;20385;-42
2022/03/01 10:53:03;;;;;;;11.55;7.45;;;9.60;58.00;;;;;;5092945;28;20108;-44
2022/03/01 10:55:32;;;;;;;12.60;7.45;;;9.70;57.70;;;;;;5092468;28;20412;-44
2022/03/01 10:58:09;;;;;;;11.00;6.70;;;9.80;57.50;;;;;;5092446;28;20020;-45
2022/03/01 11:00:36;;;;;;;10.60;6.68;;;9.80;57.40;;;;;;5092828;28;20024;-45
2022/03/01 11:03:07;;;;;;;10.57;6.90;;;9.80;58.10;;;;;;5092767;28;20064;-44
2022/03/01 11:05:34;;;;;;;9.57;6.43;;;9.80;58.00;;;;;;5092540;28;20043;-46
2022/03/01 11:08:05;;;;;;;11.23;7.35;;;9.80;57.70;;;;;;5092493;28;20017;-44
2022/03/01 11:10:32;;;;;;;10.75;7.40;;;9.90;57.50;;;;;;5093775;28;20020;-44
2022/03/01 11:13:00;;;;;;;12.18;6.97;;;10.00;57.30;;;;;;5096298;28;20403;-44
2022/03/01 11:15:56;;;;;;;10.77;7.13;;;10.10;57.20;;;;;;5096325;28;20020;-43
2022/03/01 11:18:43;;;;;;;11.48;7.22;;;10.10;57.10;;;;;;5096188;28;20055;-44
2022/03/01 11:21:12;;;;;;;10.73;7.28;;;10.20;57.00;;;;;;5096272;28;20022;-43
2022/03/01 11:23:40;;;;;;;9.48;7.38;;;10.30;56.90;;;;;;5096059;28;20032;-43
2022/03/01 11:26:12;;;;;;;9.57;7.05;;;10.30;56.80;;;;;;5096024;28;20039;-44
2022/03/01 11:28:41;;;;;;;9.82;7.00;;;10.40;56.60;;;;;;5095942;28;20028;-42
2022/03/01 11:31:31;;;;;;;10.85;7.80;;;10.40;56.40;;;;;;5095980;28;20484;-44
2022/03/01 11:34:11;;;;;;;15.43;8.00;;;10.50;56.70;;;;;;5095746;28;20016;-44
2022/03/01 11:36:37;;;;;;;11.38;7.45;;;10.50;56.00;;;;;;5095854;28;20070;-44
2022/03/01 11:39:17;;;;;;;12.10;7.38;;;10.60;56.70;;;;;;5095829;28;20024;-44
2022/03/01 11:41:52;;;;;;;11.70;7.63;;;10.60;55.80;;;;;;5095664;28;20066;-44
2022/03/01 11:44:23;;;;;;;9.98;7.40;;;10.70;55.80;;;;;;5095663;28;20065;-42
2022/03/01 11:46:50;;;;;;;9.18;6.65;;;10.80;55.70;;;;;;5095526;28;20020;-43
2022/03/01 11:49:20;;;;;;;11.82;6.97;;;10.80;55.70;;;;;;5077532;28;20495;-44
2022/03/01 11:52:05;;;;;;;9.80;7.00;;;10.90;55.50;;;;;;5095482;28;20020;-45
2022/03/01 11:54:33;;;;;;;10.02;7.38;;;10.90;55.40;;;;;;5095624;28;20532;-45
2022/03/01 11:57:00;;;;;;;9.90;6.63;;;10.90;55.30;;;;;;5077449;28;20392;-44
2022/03/01 11:59:26;;;;;;;10.13;6.72;;;10.80;55.40;;;;;;5095431;28;20024;-46
2022/03/01 12:01:53;;;;;;;10.10;7.50;;;10.80;55.40;;;;;;5095268;28;20024;-44
2022/03/01 12:04:21;;;;;;;9.43;6.50;;;10.90;55.40;;;;;;5095348;28;20027;-43
2022/03/01 12:06:52;;;;;;;11.25;7.20;;;10.90;55.30;;;;;;5095175;28;20039;-44
2022/03/01 12:09:17;;;;;;;11.27;7.20;;;10.90;55.20;;;;;;5095260;28;20055;-45
2022/03/01 12:11:45;;;;;;;10.07;7.35;;;10.90;55.10;;;;;;5077077;28;20565;-45
2022/03/01 12:14:19;;;;;;;11.35;7.55;;;11.00;55.10;;;;;;5095463;28;20020;-45
2022/03/01 12:16:45;;;;;;;14.60;7.40;;;11.00;54.90;;;;;;5076849;28;20456;-44
2022/03/01 12:19:13;;;;;;;11.88;7.70;;;11.00;55.00;;;;;;5095076;28;20023;-44
2022/03/01 12:21:39;;;;;;;10.73;7.22;;;11.10;54.80;;;;;;5094478;28;20028;-45
2022/03/01 12:24:07;;;;;;;11.77;7.65;;;11.20;54.80;;;;;;5094775;28;20472;-45
2022/03/01 12:26:42;;;;;;;11.65;7.63;;;11.30;54.70;;;;;;5094981;28;20513;-44
2022/03/01 12:29:10;;;;;;;10.57;7.22;;;11.30;54.60;;;;;;5094945;28;20032;-45
2022/03/01 12:31:35;;;;;;;10.65;7.63;;;11.50;55.50;;;;;;5094895;28;20020;-44
2022/03/01 12:34:06;;;;;;;9.15;6.97;;;11.60;55.20;;;;;;5094661;28;20534;-45
2022/03/01 12:36:38;;;;;;;9.88;7.10;;;11.60;55.10;;;;;;5094797;28;20035;-45
2022/03/01 12:39:08;;;;;;;12.95;7.88;;;11.60;54.90;;;;;;5094867;28;20472;-45
2022/03/01 12:41:35;;;;;;;13.30;7.75;;;11.70;54.60;;;;;;5094782;28;20024;-46
2022/03/01 12:44:04;;;;;;;10.52;7.50;;;11.80;54.50;;;;;;5094488;28;20020;-45
2022/03/01 12:46:30;;;;;;;10.20;7.22;;;11.90;54.40;;;;;;5094463;28;20051;-44
2022/03/01 12:48:57;;;;;;;10.77;7.43;;;11.90;54.30;;;;;;5076198;28;20020;-44